Time;durP1;ratioP1;P1;durP2;ratioP2;P2;SDS_P1;SDS_P2;PMS_P1;PMS_P2;Temp;Humidity;BMP_temperature;BMP_pressure;BME280_temperature;BME280_humidity;BME280_pressure;Samples;Min_cycle;Max_cycle;Signal;HPM_P1;HPM_P2
2021/06/27 00:01:55;;;;;;;24.85;22.35;;;18.10;99.90;;;;;;5095010;28;20030;-71
2021/06/27 00:04:21;;;;;;;25.10;22.45;;;18.00;99.90;;;;;;5095593;28;20020;-70
2021/06/27 00:06:47;;;;;;;22.90;20.63;;;18.10;99.90;;;;;;5096200;28;20052;-74
2021/06/27 00:09:13;;;;;;;24.52;22.17;;;18.00;99.90;;;;;;5096115;28;20397;-71
2021/06/27 00:11:39;;;;;;;23.15;20.75;;;18.00;99.90;;;;;;5094131;28;20065;-74
2021/06/27 00:14:05;;;;;;;25.38;22.67;;;17.90;99.90;;;;;;5095900;28;20028;-70
2021/06/27 00:16:31;;;;;;;23.65;21.33;;;17.90;99.90;;;;;;5095781;28;20028;-70
2021/06/27 00:18:59;;;;;;;24.33;21.83;;;18.00;99.90;;;;;;5112425;28;20051;-70
2021/06/27 00:21:25;;;;;;;23.92;21.48;;;18.00;99.90;;;;;;5116654;28;20020;-72
2021/06/27 00:23:51;;;;;;;22.55;20.23;;;18.00;99.90;;;;;;5097810;28;20015;-70
2021/06/27 00:26:21;;;;;;;23.70;21.33;;;18.10;99.90;;;;;;5115527;28;20051;-71
2021/06/27 00:28:46;;;;;;;25.85;23.25;;;18.00;99.90;;;;;;5116190;28;20077;-70
2021/06/27 00:31:13;;;;;;;24.58;22.13;;;18.00;99.90;;;;;;5115540;28;20020;-73
2021/06/27 00:33:39;;;;;;;24.52;22.08;;;18.10;99.90;;;;;;5116042;28;20016;-71
2021/06/27 00:36:05;;;;;;;29.67;24.10;;;18.10;99.90;;;;;;5115832;28;20036;-71
2021/06/27 00:38:31;;;;;;;25.92;23.48;;;18.10;99.90;;;;;;5115381;28;20051;-71
2021/06/27 00:40:57;;;;;;;25.40;22.80;;;18.10;99.90;;;;;;5115909;28;20056;-70
2021/06/27 00:43:22;;;;;;;24.77;22.27;;;18.10;99.90;;;;;;5115892;28;20459;-70
2021/06/27 00:45:49;;;;;;;25.23;22.63;;;18.10;99.90;;;;;;5096930;28;20480;-70
2021/06/27 00:48:15;;;;;;;24.13;21.63;;;18.10;99.90;;;;;;5115845;28;20051;-71
2021/06/27 00:50:52;;;;;;;28.33;24.40;;;18.10;99.90;;;;;;5115658;28;20051;-70
2021/06/27 00:53:18;;;;;;;23.98;21.58;;;18.00;99.90;;;;;;5115039;28;20068;-70
2021/06/27 00:55:45;;;;;;;24.25;21.85;;;18.00;99.90;;;;;;5115628;28;20107;-71
2021/06/27 00:58:11;;;;;;;24.10;21.65;;;18.00;99.90;;;;;;5115737;28;20027;-70
2021/06/27 01:00:40;;;;;;;25.75;23.15;;;17.90;99.90;;;;;;5114842;28;20031;-70
2021/06/27 01:03:06;;;;;;;26.75;24.08;;;18.00;99.90;;;;;;5115252;28;20031;-70
2021/06/27 01:05:35;;;;;;;25.70;23.02;;;18.00;99.90;;;;;;5097197;28;20103;-70
2021/06/27 01:08:00;;;;;;;25.17;22.60;;;18.10;99.90;;;;;;5096231;28;20020;-70
2021/06/27 01:10:26;;;;;;;27.38;24.60;;;18.10;99.90;;;;;;5115492;28;20020;-72
2021/06/27 01:12:52;;;;;;;27.15;23.33;;;18.20;99.90;;;;;;5097005;28;20099;-70
2021/06/27 01:15:19;;;;;;;26.02;23.42;;;18.30;99.90;;;;;;5096149;28;20072;-70
2021/06/27 01:17:46;;;;;;;27.75;24.73;;;18.30;99.90;;;;;;5096834;28;20077;-72
2021/06/27 01:20:18;;;;;;;27.25;24.55;;;18.40;99.90;;;;;;5096670;28;20016;-72
2021/06/27 01:22:44;;;;;;;25.73;23.10;;;18.40;99.90;;;;;;5096135;28;20019;-72
2021/06/27 01:25:11;;;;;;;27.85;24.95;;;18.40;99.90;;;;;;5115126;28;20034;-70
2021/06/27 01:27:38;;;;;;;30.63;27.42;;;18.40;99.90;;;;;;5096086;28;20031;-70
2021/06/27 01:30:08;;;;;;;29.00;25.77;;;18.30;99.90;;;;;;5114901;28;20456;-73
2021/06/27 01:32:33;;;;;;;31.75;28.23;;;18.20;99.90;;;;;;5115318;28;20464;-70
2021/06/27 01:34:59;;;;;;;31.00;27.83;;;18.10;99.90;;;;;;5095686;28;20042;-70
2021/06/27 01:37:25;;;;;;;32.13;28.70;;;18.10;99.90;;;;;;5114772;28;20487;-70
2021/06/27 01:39:50;;;;;;;34.08;29.52;;;18.00;99.90;;;;;;5115084;27;20020;-70
2021/06/27 01:42:16;;;;;;;31.58;28.20;;;18.00;99.90;;;;;;5114016;28;20031;-69
2021/06/27 01:44:41;;;;;;;31.40;28.10;;;18.00;99.90;;;;;;5114539;28;20019;-72
2021/06/27 01:47:07;;;;;;;33.50;30.13;;;17.90;99.90;;;;;;5114564;28;20039;-69
2021/06/27 01:49:33;;;;;;;32.05;28.83;;;17.80;99.90;;;;;;5113829;28;20019;-70
2021/06/27 01:51:58;;;;;;;33.03;29.30;;;17.80;99.90;;;;;;5114506;28;20024;-76
2021/06/27 01:54:24;;;;;;;37.35;32.08;;;17.80;99.90;;;;;;5095951;28;20019;-70
2021/06/27 01:56:50;;;;;;;33.47;29.98;;;17.70;99.90;;;;;;5113620;28;20077;-70
2021/06/27 01:59:16;;;;;;;30.63;27.48;;;17.70;99.90;;;;;;5114489;28;20019;-71
2021/06/27 02:01:42;;;;;;;33.45;29.98;;;17.60;99.90;;;;;;5096239;28;20375;-70
2021/06/27 02:04:09;;;;;;;32.35;28.88;;;17.60;99.90;;;;;;5095271;28;20483;-70
2021/06/27 02:06:38;;;;;;;34.13;30.73;;;17.60;99.90;;;;;;5096016;28;20021;-72
2021/06/27 02:09:14;;;;;;;32.30;29.05;;;17.50;99.90;;;;;;5114139;28;20020;-70
2021/06/27 02:11:40;;;;;;;34.35;30.65;;;17.50;99.90;;;;;;5113461;28;20381;-70
2021/06/27 02:14:07;;;;;;;34.17;30.73;;;17.40;99.90;;;;;;5114201;28;20023;-70
2021/06/27 02:16:33;;;;;;;36.70;32.70;;;17.40;99.90;;;;;;5095882;28;20031;-70
2021/06/27 02:18:59;;;;;;;36.13;32.20;;;17.40;99.90;;;;;;5094334;28;20050;-70
2021/06/27 02:21:33;;;;;;;34.75;31.13;;;17.40;99.90;;;;;;5114085;28;20103;-70
2021/06/27 02:24:00;;;;;;;36.78;32.88;;;17.30;99.90;;;;;;5113303;28;20054;-69
2021/06/27 02:26:26;;;;;;;34.47;30.98;;;17.30;99.90;;;;;;5095783;28;20479;-70
2021/06/27 02:28:53;;;;;;;35.70;31.98;;;17.30;99.90;;;;;;5114082;28;20016;-70
2021/06/27 02:31:19;;;;;;;39.55;34.88;;;17.30;99.90;;;;;;5094965;28;20126;-71
2021/06/27 02:33:46;;;;;;;36.83;32.80;;;17.30;99.90;;;;;;5095484;28;20040;-78
2021/06/27 02:36:12;;;;;;;35.13;31.50;;;17.30;99.90;;;;;;5113815;28;20031;-71
2021/06/27 02:38:39;;;;;;;35.67;32.15;;;17.40;99.90;;;;;;5113155;28;20022;-71
2021/06/27 02:41:08;;;;;;;35.33;31.65;;;17.40;99.90;;;;;;5113735;28;20019;-71
2021/06/27 02:43:34;;;;;;;36.15;32.33;;;17.40;99.90;;;;;;5095603;28;20024;-72
2021/06/27 02:45:59;;;;;;;36.83;32.75;;;17.40;99.90;;;;;;5094532;28;20069;-71
2021/06/27 02:48:27;;;;;;;34.70;31.00;;;17.40;99.90;;;;;;5113391;28;20031;-74
2021/06/27 02:50:52;;;;;;;39.45;35.15;;;17.40;99.90;;;;;;5095562;28;20090;-71
2021/06/27 02:53:18;;;;;;;36.65;32.78;;;17.30;99.90;;;;;;5112967;28;20015;-74
2021/06/27 02:55:45;;;;;;;36.28;32.47;;;17.20;99.90;;;;;;5113876;28;20472;-70
2021/06/27 02:58:11;;;;;;;36.30;32.47;;;17.20;99.90;;;;;;5095301;28;20030;-71
2021/06/27 03:00:37;;;;;;;37.47;33.58;;;17.10;99.90;;;;;;5112980;28;20028;-70
2021/06/27 03:03:03;;;;;;;37.80;33.78;;;17.10;99.90;;;;;;5113494;28;20027;-71
2021/06/27 03:05:29;;;;;;;38.55;34.08;;;17.10;99.90;;;;;;5095400;28;20053;-71
2021/06/27 03:07:55;;;;;;;37.72;33.85;;;17.00;99.90;;;;;;5094686;28;20368;-71
2021/06/27 03:10:22;;;;;;;37.40;33.40;;;17.00;99.90;;;;;;5113392;28;20528;-70
2021/06/27 03:12:51;;;;;;;37.70;33.70;;;17.00;99.90;;;;;;5095270;28;20365;-73
2021/06/27 03:15:18;;;;;;;39.03;34.92;;;17.00;99.90;;;;;;5094991;28;20020;-70
2021/06/27 03:17:45;;;;;;;37.03;33.05;;;16.90;99.90;;;;;;5095049;28;20040;-70
2021/06/27 03:20:13;;;;;;;38.70;34.60;;;16.90;99.90;;;;;;5112701;28;20030;-70
2021/06/27 03:22:40;;;;;;;39.25;35.10;;;16.90;99.90;;;;;;5095295;28;20027;-72
2021/06/27 03:25:07;;;;;;;38.92;34.83;;;16.90;99.90;;;;;;5095302;28;20022;-70
2021/06/27 03:27:32;;;;;;;40.03;34.92;;;16.90;99.90;;;;;;5094581;28;20024;-70
2021/06/27 03:29:58;;;;;;;37.88;33.88;;;16.90;99.90;;;;;;5114702;28;20032;-70
2021/06/27 03:32:24;;;;;;;41.25;36.83;;;17.00;99.90;;;;;;5098895;28;20443;-71
2021/06/27 03:34:50;;;;;;;40.75;35.88;;;17.10;99.90;;;;;;5097898;28;20027;-70
2021/06/27 03:37:15;;;;;;;40.70;36.15;;;17.10;99.90;;;;;;5098911;28;20536;-71
2021/06/27 03:39:41;;;;;;;36.90;32.92;;;17.10;99.90;;;;;;5117147;28;20113;-74
2021/06/27 03:42:07;;;;;;;39.83;35.53;;;17.10;99.90;;;;;;5098050;28;20068;-70
2021/06/27 03:44:32;;;;;;;40.40;36.00;;;17.00;99.90;;;;;;5098620;28;20036;-69
2021/06/27 03:46:58;;;;;;;39.47;35.17;;;17.00;99.90;;;;;;5117322;28;20054;-71
2021/06/27 03:49:23;;;;;;;38.92;34.70;;;17.00;99.90;;;;;;5116188;28;20539;-71
2021/06/27 03:51:49;;;;;;;38.80;34.25;;;17.00;99.90;;;;;;5098628;28;20526;-73
2021/06/27 03:54:16;;;;;;;37.28;33.20;;;17.00;99.90;;;;;;5116750;28;20576;-70
2021/06/27 03:56:42;;;;;;;37.05;33.08;;;17.00;99.90;;;;;;5116086;28;20502;-70
2021/06/27 03:59:09;;;;;;;37.50;33.38;;;17.00;99.90;;;;;;5116693;28;20073;-70
2021/06/27 04:01:35;;;;;;;35.33;31.55;;;17.00;99.90;;;;;;5098257;28;20069;-70
2021/06/27 04:04:02;;;;;;;37.80;33.90;;;17.00;99.90;;;;;;5097601;28;20027;-71
2021/06/27 04:06:27;;;;;;;38.03;33.97;;;17.00;99.90;;;;;;5116859;28;20020;-70
2021/06/27 04:08:53;;;;;;;37.45;33.45;;;17.10;99.90;;;;;;5098343;28;20159;-73
2021/06/27 04:11:19;;;;;;;35.83;32.08;;;17.00;99.90;;;;;;5079772;28;20027;-71
2021/06/27 04:13:44;;;;;;;38.25;34.15;;;17.10;99.90;;;;;;5075189;28;20020;-70
2021/06/27 04:16:10;;;;;;;38.42;34.30;;;17.10;99.90;;;;;;5094391;28;20032;-72
2021/06/27 04:18:37;;;;;;;35.00;31.33;;;17.20;99.90;;;;;;5072024;28;20044;-70
2021/06/27 04:21:03;;;;;;;36.70;32.80;;;17.10;99.90;;;;;;5094759;28;20126;-72
2021/06/27 04:23:31;;;;;;;34.38;30.77;;;17.20;99.90;;;;;;5094297;28;20031;-70
2021/06/27 04:25:57;;;;;;;35.10;31.40;;;17.20;99.90;;;;;;5077150;28;20032;-70
2021/06/27 04:28:23;;;;;;;35.17;31.38;;;17.20;99.90;;;;;;5077165;28;20115;-70
2021/06/27 04:30:48;;;;;;;36.17;31.83;;;17.30;99.90;;;;;;5077156;28;20024;-71
2021/06/27 04:33:14;;;;;;;33.47;29.95;;;17.30;99.90;;;;;;5056729;28;20036;-71
2021/06/27 04:35:40;;;;;;;35.42;31.55;;;17.50;99.90;;;;;;5056769;28;20024;-70
2021/06/27 04:38:08;;;;;;;32.50;29.00;;;17.60;99.90;;;;;;5074294;28;20028;-70
2021/06/27 04:40:35;;;;;;;32.97;29.58;;;17.70;99.90;;;;;;5074785;28;20017;-69
2021/06/27 04:43:01;;;;;;;32.42;28.98;;;17.80;99.90;;;;;;5055982;28;20028;-74
2021/06/27 04:45:27;;;;;;;31.42;28.27;;;17.80;99.90;;;;;;5073833;28;20031;-73
2021/06/27 04:47:53;;;;;;;30.38;27.15;;;17.90;99.90;;;;;;5056765;28;20025;-73
2021/06/27 04:50:18;;;;;;;32.17;28.67;;;17.90;99.90;;;;;;5074600;28;20029;-69
2021/06/27 04:52:44;;;;;;;30.08;26.98;;;18.10;99.90;;;;;;5073838;28;20056;-71
2021/06/27 04:55:10;;;;;;;29.67;26.63;;;18.10;99.90;;;;;;5074397;28;20060;-75
2021/06/27 04:57:36;;;;;;;30.00;26.85;;;18.30;99.90;;;;;;5056808;28;20504;-73
2021/06/27 05:00:05;;;;;;;31.15;27.98;;;18.40;99.90;;;;;;5056110;28;20024;-76
2021/06/27 05:02:31;;;;;;;28.73;25.83;;;18.50;99.90;;;;;;5056163;28;20013;-77
2021/06/27 05:04:58;;;;;;;29.45;26.42;;;18.60;99.90;;;;;;5056343;28;20468;-87
2021/06/27 05:07:24;;;;;;;29.67;26.48;;;18.70;99.90;;;;;;5056471;28;20461;-72
2021/06/27 05:09:50;;;;;;;27.33;24.42;;;18.80;99.90;;;;;;5076535;28;20103;-73
2021/06/27 05:12:16;;;;;;;26.58;23.85;;;18.90;99.90;;;;;;5093972;28;20024;-70
2021/06/27 05:14:42;;;;;;;26.92;24.23;;;19.00;99.90;;;;;;5093433;28;20023;-70
2021/06/27 05:17:07;;;;;;;28.75;25.08;;;19.00;99.90;;;;;;5076185;28;20040;-73
2021/06/27 05:19:33;;;;;;;26.63;23.83;;;19.00;99.90;;;;;;5093493;28;20036;-70
2021/06/27 05:21:59;;;;;;;26.73;24.05;;;19.10;99.90;;;;;;5093845;28;20157;-71
2021/06/27 05:24:24;;;;;;;26.10;23.30;;;19.20;99.90;;;;;;5076035;28;20476;-70
2021/06/27 05:26:50;;;;;;;26.35;23.67;;;19.20;99.90;;;;;;5074894;28;20516;-70
2021/06/27 05:29:15;;;;;;;25.27;22.73;;;19.30;99.90;;;;;;5075996;28;20027;-69
2021/06/27 05:31:41;;;;;;;25.88;23.05;;;19.40;99.90;;;;;;5075394;28;20019;-71
2021/06/27 05:34:06;;;;;;;24.25;21.85;;;19.50;99.90;;;;;;5093274;28;20430;-70
2021/06/27 05:36:39;;;;;;;24.08;21.70;;;19.50;99.90;;;;;;5093693;28;20119;-70
2021/06/27 05:39:10;;;;;;;25.23;22.70;;;19.60;99.90;;;;;;5094159;28;20035;-69
2021/06/27 05:41:36;;;;;;;23.40;21.10;;;19.70;99.90;;;;;;5092493;28;20028;-71
2021/06/27 05:44:05;;;;;;;23.08;20.65;;;19.70;99.90;;;;;;5093434;28;20461;-70
2021/06/27 05:46:31;;;;;;;23.05;20.75;;;19.70;99.90;;;;;;5093514;28;20034;-70
2021/06/27 05:48:57;;;;;;;24.52;22.00;;;19.70;99.90;;;;;;5074992;28;20480;-71
2021/06/27 05:51:24;;;;;;;23.25;20.95;;;19.80;99.90;;;;;;5075415;28;20023;-68
